createdAt,value
2022-10-04T00:02:21.587Z,6.90
2022-10-04T00:05:24.284Z,6.90
2022-10-04T00:08:51.743Z,6.90
2022-10-04T00:11:50.076Z,6.90
2022-10-04T00:14:47.781Z,6.90
2022-10-04T00:17:44.881Z,6.80
2022-10-04T00:20:50.581Z,6.80
2022-10-04T00:23:48.171Z,6.80
2022-10-04T00:26:44.871Z,6.70
2022-10-04T00:29:42.559Z,6.70
2022-10-04T00:32:39.504Z,6.60
2022-10-04T00:35:36.204Z,6.70
2022-10-04T00:38:33.107Z,6.60
2022-10-04T00:41:51.762Z,6.60
2022-10-04T00:44:59.559Z,6.60
2022-10-04T00:48:11.530Z,6.60
2022-10-04T00:51:30.055Z,6.60
2022-10-04T00:54:43.401Z,6.40
2022-10-04T00:57:48.441Z,6.40
2022-10-04T01:00:48.368Z,6.40
2022-10-04T01:03:46.225Z,6.40
2022-10-04T01:06:44.397Z,6.40
2022-10-04T01:09:54.961Z,6.50
2022-10-04T01:13:13.430Z,6.50
2022-10-04T01:16:15.549Z,6.40
2022-10-04T01:19:29.954Z,6.50
2022-10-04T01:22:42.635Z,6.50
2022-10-04T01:25:50.821Z,6.60
2022-10-04T01:28:47.712Z,6.70
2022-10-04T01:31:50.813Z,6.70
2022-10-04T01:34:47.750Z,6.60
2022-10-04T01:37:44.648Z,6.60
2022-10-04T01:40:57.277Z,6.60
2022-10-04T01:44:01.366Z,6.60
2022-10-04T01:47:04.279Z,6.60
2022-10-04T01:50:20.147Z,6.50
2022-10-04T01:53:31.334Z,6.50
2022-10-04T01:56:39.206Z,6.50
2022-10-04T01:59:54.729Z,6.50
2022-10-04T02:03:00.494Z,6.60
2022-10-04T02:06:02.126Z,6.50
2022-10-04T02:08:59.271Z,6.60
2022-10-04T02:11:58.253Z,6.50
2022-10-04T02:14:57.104Z,6.60
2022-10-04T02:17:55.787Z,6.60
2022-10-04T02:20:54.258Z,6.80
2022-10-04T02:23:53.342Z,6.70
2022-10-04T02:26:54.179Z,6.60
2022-10-04T02:29:51.014Z,6.60
2022-10-04T02:32:57.698Z,6.50
2022-10-04T02:35:54.566Z,6.50
2022-10-04T02:39:18.179Z,6.40
2022-10-04T02:42:44.244Z,6.40
2022-10-04T02:45:52.209Z,6.40
2022-10-04T02:48:58.592Z,6.40
2022-10-04T02:52:04.057Z,6.40
2022-10-04T02:55:32.857Z,6.40
2022-10-04T02:58:32.129Z,6.40
2022-10-04T03:02:01.029Z,6.40
2022-10-04T03:05:10.554Z,6.40
2022-10-04T03:08:08.145Z,6.40
2022-10-04T03:11:05.878Z,6.40
2022-10-04T03:14:09.053Z,6.40
2022-10-04T03:17:07.312Z,6.40
2022-10-04T03:20:06.012Z,6.40
2022-10-04T03:23:04.283Z,6.30
2022-10-04T03:26:19.147Z,6.30
2022-10-04T03:29:18.150Z,6.40
2022-10-04T03:32:18.904Z,6.50
2022-10-04T03:35:37.397Z,6.50
2022-10-04T03:38:36.212Z,6.50
2022-10-04T03:41:34.445Z,6.50
2022-10-04T03:44:32.240Z,6.40
2022-10-04T03:47:37.668Z,6.50
2022-10-04T03:50:47.019Z,6.50
2022-10-04T03:53:47.653Z,6.50
2022-10-04T03:56:45.682Z,6.60
2022-10-04T03:59:43.248Z,6.60
2022-10-04T04:02:50.836Z,6.60
2022-10-04T04:05:54.608Z,6.60
2022-10-04T04:08:55.309Z,6.60
2022-10-04T04:11:56.323Z,6.60
2022-10-04T04:14:54.255Z,6.70
2022-10-04T04:17:56.120Z,6.60
2022-10-04T04:20:59.072Z,6.50
2022-10-04T04:24:02.751Z,6.50
2022-10-04T04:27:05.228Z,6.50
2022-10-04T04:30:06.279Z,6.50
2022-10-04T04:33:12.461Z,6.50
2022-10-04T04:36:14.521Z,6.50
2022-10-04T04:39:43.781Z,6.50
2022-10-04T04:42:40.846Z,6.60
2022-10-04T04:45:38.560Z,6.70
2022-10-04T04:48:36.513Z,6.70
2022-10-04T04:51:33.725Z,6.70
2022-10-04T04:54:30.775Z,6.60
2022-10-04T04:57:27.860Z,6.70
2022-10-04T05:00:32.830Z,6.70
2022-10-04T05:03:34.090Z,6.70
2022-10-04T05:06:33.185Z,6.70
2022-10-04T05:09:41.407Z,6.60
2022-10-04T05:12:38.299Z,6.70
2022-10-04T05:15:40.072Z,6.90
2022-10-04T05:18:37.230Z,6.80
2022-10-04T05:21:40.778Z,6.90
2022-10-04T05:24:46.099Z,6.80
2022-10-04T05:27:45.405Z,6.80
2022-10-04T05:31:17.235Z,6.80
2022-10-04T05:34:31.775Z,6.90
2022-10-04T05:37:55.236Z,7.00
2022-10-04T05:41:05.021Z,7.00
2022-10-04T05:44:02.499Z,7.10
2022-10-04T05:47:01.455Z,7.10
2022-10-04T05:50:00.017Z,7.20
2022-10-04T05:53:35.657Z,7.20
2022-10-04T05:56:48.846Z,7.20
2022-10-04T06:00:14.666Z,7.00
2022-10-04T06:03:52.362Z,7.00
2022-10-04T06:07:14.947Z,7.00
2022-10-04T06:10:17.387Z,6.90
2022-10-04T06:14:05.321Z,6.90
2022-10-04T06:17:43.201Z,7.00
2022-10-04T06:20:58.557Z,7.10
2022-10-04T06:24:11.286Z,7.20
2022-10-04T06:27:27.717Z,7.30
2022-10-04T06:30:25.194Z,7.40
2022-10-04T06:33:33.648Z,7.40
2022-10-04T06:37:01.181Z,7.30
2022-10-04T06:40:29.240Z,7.30
2022-10-04T06:43:47.162Z,7.30
2022-10-04T06:47:13.365Z,7.30
2022-10-04T06:50:48.203Z,7.30
2022-10-04T06:54:27.494Z,7.30
2022-10-04T06:57:38.962Z,7.50
2022-10-04T07:00:54.349Z,7.50
2022-10-04T07:04:20.254Z,7.60
2022-10-04T07:07:35.449Z,7.80
2022-10-04T07:10:56.613Z,7.90
2022-10-04T07:14:13.055Z,7.80
2022-10-04T07:17:22.330Z,8.00
2022-10-04T07:20:33.936Z,8.00
2022-10-04T07:23:44.059Z,8.20
2022-10-04T07:26:50.567Z,8.30
2022-10-04T07:29:55.818Z,8.40
2022-10-04T07:32:57.787Z,8.40
2022-10-04T07:36:12.524Z,8.40
2022-10-04T07:39:59.452Z,8.50
2022-10-04T07:43:19.702Z,8.60
2022-10-04T07:46:59.737Z,8.60
2022-10-04T07:49:58.244Z,8.70
2022-10-04T07:53:15.290Z,8.80
2022-10-04T07:56:23.199Z,8.70
2022-10-04T07:59:34.862Z,8.80
2022-10-04T08:02:58.997Z,8.80
2022-10-04T08:06:12.052Z,8.90
2022-10-04T08:10:14.397Z,9.00
2022-10-04T08:13:50.228Z,9.00
2022-10-04T08:17:15.403Z,9.10
2022-10-04T08:20:42.412Z,9.20
2022-10-04T08:24:20.054Z,9.30
2022-10-04T08:28:08.673Z,9.40
2022-10-04T08:31:44.582Z,9.40
2022-10-04T08:35:34.263Z,9.60
2022-10-04T08:38:49.131Z,9.70
2022-10-04T08:42:15.300Z,9.90
2022-10-04T08:45:38.115Z,10.00
2022-10-04T08:49:01.773Z,10.20
2022-10-04T08:52:45.934Z,10.20
2022-10-04T08:56:32.259Z,10.30
2022-10-04T08:59:49.767Z,10.50
2022-10-04T09:03:31.142Z,10.60
2022-10-04T09:06:38.206Z,10.70
2022-10-04T09:10:24.910Z,10.80
2022-10-04T09:13:55.397Z,11.00
2022-10-04T09:17:39.637Z,11.10
2022-10-04T09:21:10.861Z,11.20
2022-10-04T09:25:09.059Z,11.20
2022-10-04T09:28:44.677Z,11.10
2022-10-04T09:32:19.834Z,11.40
2022-10-04T09:35:36.368Z,11.40
2022-10-04T09:39:30.101Z,11.40
2022-10-04T09:43:29.546Z,11.30
2022-10-04T09:47:05.006Z,11.30
2022-10-04T09:50:40.059Z,11.30
2022-10-04T09:54:11.676Z,11.30
2022-10-04T09:57:53.582Z,11.40
2022-10-04T10:01:15.184Z,11.40
2022-10-04T10:05:00.190Z,11.40
2022-10-04T10:08:28.509Z,11.60
2022-10-04T10:12:12.428Z,11.60
2022-10-04T10:15:24.853Z,11.70
2022-10-04T10:19:26.140Z,12.00
2022-10-04T10:23:20.600Z,12.10
2022-10-04T10:26:58.147Z,12.10
2022-10-04T10:30:04.126Z,12.30
2022-10-04T10:33:00.888Z,12.50
2022-10-04T10:36:19.762Z,12.70
2022-10-04T10:40:00.036Z,12.70
2022-10-04T10:43:09.469Z,12.50
2022-10-04T10:47:03.203Z,12.50
2022-10-04T10:50:25.152Z,12.50
2022-10-04T10:54:16.003Z,12.90
2022-10-04T10:58:28.621Z,13.20
2022-10-04T11:02:17.952Z,13.10
2022-10-04T11:05:58.155Z,12.90
2022-10-04T11:09:34.953Z,13.10
2022-10-04T11:13:11.180Z,13.50
2022-10-04T11:16:51.902Z,13.70
2022-10-04T11:20:32.005Z,13.80
2022-10-04T11:24:02.328Z,14.10
2022-10-04T11:27:37.887Z,13.80
2022-10-04T11:31:01.385Z,13.60
2022-10-04T11:34:55.553Z,13.90
2022-10-04T11:38:23.115Z,14.50
2022-10-04T11:42:07.684Z,14.80
2022-10-04T11:45:40.393Z,15.30
2022-10-04T11:49:03.474Z,15.50
2022-10-04T11:52:36.939Z,15.80
2022-10-04T11:56:38.378Z,15.80
2022-10-04T12:00:22.597Z,15.90
2022-10-04T12:03:36.343Z,16.00
2022-10-04T12:07:26.684Z,16.20
2022-10-04T12:10:40.019Z,16.50
2022-10-04T12:14:26.361Z,16.50
2022-10-04T12:17:38.483Z,16.50
2022-10-04T12:21:12.581Z,16.50
2022-10-04T12:24:52.407Z,16.70
2022-10-04T12:28:21.548Z,16.60
2022-10-04T12:31:32.168Z,16.80
2022-10-04T12:35:00.106Z,17.00
2022-10-04T12:38:45.389Z,16.70
2022-10-04T12:42:06.462Z,16.70
2022-10-04T12:45:26.949Z,16.50
2022-10-04T12:48:48.941Z,16.90
2022-10-04T12:52:11.596Z,16.90
2022-10-04T12:55:48.550Z,16.60
2022-10-04T12:59:12.562Z,16.80
2022-10-04T13:02:30.755Z,17.00
2022-10-04T13:05:46.832Z,16.90
2022-10-04T13:09:14.196Z,16.90
2022-10-04T13:12:29.836Z,16.80
2022-10-04T13:19:23.232Z,17.10
2022-10-04T13:23:15.027Z,17.10
2022-10-04T13:26:44.259Z,16.80
2022-10-04T13:30:02.299Z,16.90
2022-10-04T13:33:50.199Z,16.70
2022-10-04T13:37:21.870Z,16.60
2022-10-04T13:40:39.675Z,16.90
2022-10-04T13:44:31.530Z,17.00
2022-10-04T13:48:21.970Z,16.90
2022-10-04T13:51:46.844Z,17.10
2022-10-04T13:55:25.799Z,16.80
2022-10-04T13:59:00.794Z,16.50
2022-10-04T14:02:23.686Z,16.50
2022-10-04T14:05:44.026Z,16.90
2022-10-04T14:09:35.614Z,16.10
2022-10-04T14:13:11.075Z,16.00
2022-10-04T14:16:49.915Z,16.10
2022-10-04T14:20:50.243Z,16.00
2022-10-04T14:24:34.375Z,15.90
2022-10-04T14:27:39.391Z,15.90
2022-10-04T14:31:13.720Z,16.30
2022-10-04T14:34:45.279Z,16.00
2022-10-04T14:38:24.506Z,15.90
2022-10-04T14:42:05.851Z,15.70
2022-10-04T14:45:49.277Z,16.10
2022-10-04T14:49:37.638Z,15.80
2022-10-04T14:53:10.139Z,15.50
2022-10-04T14:56:42.164Z,15.30
2022-10-04T15:00:10.588Z,15.20
2022-10-04T15:03:46.715Z,15.70
2022-10-04T15:07:00.484Z,15.50
2022-10-04T15:10:19.040Z,15.40
2022-10-04T15:13:25.398Z,15.30
2022-10-04T15:16:44.978Z,15.10
2022-10-04T15:20:05.052Z,15.30
2022-10-04T15:23:01.717Z,15.20
2022-10-04T15:26:19.498Z,15.20
2022-10-04T15:29:59.792Z,15.00
2022-10-04T15:33:20.604Z,14.80
2022-10-04T15:36:39.513Z,14.80
2022-10-04T15:40:16.488Z,14.80
2022-10-04T15:43:30.047Z,14.50
2022-10-04T15:47:09.849Z,14.30
2022-10-04T15:50:30.496Z,14.10
2022-10-04T15:53:52.426Z,14.20
2022-10-04T15:56:56.420Z,14.00
2022-10-04T16:00:15.176Z,13.70
2022-10-04T16:03:42.640Z,13.70
2022-10-04T16:06:46.976Z,13.40
2022-10-04T16:09:58.929Z,13.20
2022-10-04T16:13:19.545Z,12.90
2022-10-04T16:16:26.180Z,12.70
2022-10-04T16:20:20.001Z,13.20
2022-10-04T16:23:31.382Z,13.10
2022-10-04T16:26:33.761Z,13.00
2022-10-04T16:30:25.670Z,12.70
2022-10-04T16:33:42.418Z,12.50
2022-10-04T16:37:18.244Z,12.50
2022-10-04T16:40:56.980Z,12.20
2022-10-04T16:43:56.103Z,12.00
2022-10-04T16:46:55.679Z,11.90
2022-10-04T16:49:57.212Z,11.80
2022-10-04T16:53:21.503Z,11.70
2022-10-04T16:56:24.740Z,11.60
2022-10-04T16:59:41.967Z,11.50
2022-10-04T17:03:03.825Z,11.40
2022-10-04T17:06:14.747Z,11.20
2022-10-04T17:09:30.059Z,11.20
2022-10-04T17:12:51.152Z,11.00
2022-10-04T17:16:06.028Z,10.90
2022-10-04T17:19:31.807Z,10.80
2022-10-04T17:22:56.964Z,10.70
2022-10-04T17:26:29.949Z,10.60
2022-10-04T17:30:11.842Z,10.60
2022-10-04T17:33:44.254Z,10.40
2022-10-04T17:36:56.271Z,10.30
2022-10-04T17:40:11.737Z,10.20
2022-10-04T17:43:41.935Z,10.20
2022-10-04T17:47:14.579Z,10.20
2022-10-04T17:51:08.241Z,10.10
2022-10-04T17:54:40.896Z,10.00
2022-10-04T17:58:24.093Z,10.00
2022-10-04T18:01:45.813Z,9.90
2022-10-04T18:04:53.123Z,9.70
2022-10-04T18:08:44.490Z,9.60
2022-10-04T18:12:10.191Z,9.50
2022-10-04T18:15:32.024Z,9.40
2022-10-04T18:18:41.811Z,9.40
2022-10-04T18:21:49.420Z,9.40
2022-10-04T18:25:15.566Z,9.20
2022-10-04T18:28:20.723Z,9.20
2022-10-04T18:31:37.299Z,9.20
2022-10-04T18:34:36.382Z,9.10
2022-10-04T18:37:39.031Z,9.10
2022-10-04T18:40:42.964Z,9.10
2022-10-04T18:44:05.062Z,9.00
2022-10-04T18:47:14.347Z,8.90
2022-10-04T18:50:44.730Z,8.90
2022-10-04T18:53:44.282Z,9.10
2022-10-04T18:57:04.715Z,9.00
2022-10-04T19:00:30.560Z,8.90
2022-10-04T19:03:37.051Z,8.80
2022-10-04T19:06:38.208Z,8.70
2022-10-04T19:10:01.105Z,8.70
2022-10-04T19:13:08.177Z,8.70
2022-10-04T19:16:31.203Z,8.70
2022-10-04T19:19:49.427Z,8.60
2022-10-04T19:22:52.059Z,8.50
2022-10-04T19:26:31.268Z,8.50
2022-10-04T19:29:41.150Z,8.50
2022-10-04T19:32:57.451Z,8.40
2022-10-04T19:36:52.697Z,8.40
2022-10-04T19:40:24.674Z,8.30
2022-10-04T19:43:31.989Z,8.30
2022-10-04T19:47:02.563Z,8.30
2022-10-04T19:50:32.610Z,8.50
2022-10-04T19:53:44.293Z,8.40
2022-10-04T19:56:49.526Z,8.40
2022-10-04T19:59:48.394Z,8.20
2022-10-04T20:02:48.740Z,8.30
2022-10-04T20:05:53.263Z,8.20
2022-10-04T20:09:24.475Z,8.10
2022-10-04T20:12:41.359Z,8.00
2022-10-04T20:15:38.466Z,8.00
2022-10-04T20:18:57.703Z,8.00
2022-10-04T20:21:55.804Z,7.90
2022-10-04T20:24:52.781Z,7.90
2022-10-04T20:27:49.469Z,7.90
2022-10-04T20:30:52.391Z,7.80
2022-10-04T20:33:50.536Z,7.80
2022-10-04T20:36:51.932Z,7.90
2022-10-04T20:39:51.209Z,7.80
2022-10-04T20:43:15.035Z,7.70
2022-10-04T20:46:23.675Z,7.70
2022-10-04T20:49:20.548Z,7.70
2022-10-04T20:52:17.664Z,7.60
2022-10-04T20:55:28.164Z,7.60
2022-10-04T20:58:35.381Z,7.50
2022-10-04T21:01:35.562Z,7.40
2022-10-04T21:04:33.520Z,7.40
2022-10-04T21:07:30.954Z,7.40
2022-10-04T21:10:28.593Z,7.50
2022-10-04T21:13:49.184Z,7.60
2022-10-04T21:16:48.784Z,7.60
2022-10-04T21:19:46.240Z,7.70
2022-10-04T21:22:43.130Z,7.80
2022-10-04T21:25:40.015Z,7.60
2022-10-04T21:28:36.861Z,7.40
2022-10-04T21:31:34.064Z,7.50
2022-10-04T21:34:51.827Z,7.50
2022-10-04T21:37:47.788Z,7.40
2022-10-04T21:40:44.618Z,7.20
2022-10-04T21:43:41.432Z,7.20
2022-10-04T21:46:38.538Z,7.10
2022-10-04T21:49:35.460Z,7.10
2022-10-04T21:52:32.272Z,7.00
2022-10-04T21:55:29.082Z,7.00
2022-10-04T21:58:25.943Z,7.00
2022-10-04T22:01:23.509Z,7.00
2022-10-04T22:04:20.386Z,6.90
2022-10-04T22:07:17.212Z,6.90
2022-10-04T22:10:14.131Z,6.80
2022-10-04T22:13:10.950Z,6.80
2022-10-04T22:16:08.490Z,7.00
2022-10-04T22:19:05.371Z,7.00
2022-10-04T22:22:02.224Z,7.00
2022-10-04T22:24:59.914Z,6.90
2022-10-04T22:27:56.777Z,6.80
2022-10-04T22:30:55.814Z,6.80
2022-10-04T22:33:53.155Z,6.70
2022-10-04T22:36:52.963Z,6.80
2022-10-04T22:39:53.494Z,6.80
2022-10-04T22:42:56.105Z,6.70
2022-10-04T22:45:54.683Z,6.70
2022-10-04T22:48:51.533Z,6.80
2022-10-04T22:51:50.569Z,6.80
2022-10-04T22:54:50.766Z,6.70
2022-10-04T22:57:47.724Z,6.70
2022-10-04T23:00:45.445Z,6.70
2022-10-04T23:03:47.703Z,6.70
2022-10-04T23:06:44.853Z,6.70
2022-10-04T23:09:41.839Z,6.60
2022-10-04T23:12:40.698Z,6.70
2022-10-04T23:15:37.521Z,6.60
2022-10-04T23:18:34.346Z,6.60
2022-10-04T23:21:35.132Z,6.70
2022-10-04T23:24:31.933Z,6.70
2022-10-04T23:27:29.260Z,6.80
2022-10-04T23:30:26.388Z,6.70
2022-10-04T23:33:23.962Z,6.70
2022-10-04T23:36:21.580Z,6.60
2022-10-04T23:39:33.806Z,6.60
2022-10-04T23:42:33.437Z,6.60
2022-10-04T23:45:30.609Z,6.70
2022-10-04T23:48:29.320Z,6.60
2022-10-04T23:51:26.188Z,6.60
2022-10-04T23:54:23.010Z,6.60
2022-10-04T23:57:27.923Z,6.60
